sensor_id;sensor_type;location;lat;lon;timestamp;P1;durP1;ratioP1;P2;durP2;ratioP2
1308;SDS011;647;48.840;9.314;2022-08-06T00:02:03;60.63;;;2.93;;
1308;SDS011;647;48.840;9.314;2022-08-06T00:04:32;59.37;;;3.00;;
1308;SDS011;647;48.840;9.314;2022-08-06T00:06:59;58.47;;;2.70;;
1308;SDS011;647;48.840;9.314;2022-08-06T00:09:26;61.20;;;3.43;;
1308;SDS011;647;48.840;9.314;2022-08-06T00:11:55;59.30;;;3.27;;
1308;SDS011;647;48.840;9.314;2022-08-06T00:14:22;59.00;;;3.23;;
1308;SDS011;647;48.840;9.314;2022-08-06T00:16:49;59.70;;;3.57;;
1308;SDS011;647;48.840;9.314;2022-08-06T00:19:16;59.23;;;3.00;;
1308;SDS011;647;48.840;9.314;2022-08-06T00:21:45;58.93;;;3.03;;
1308;SDS011;647;48.840;9.314;2022-08-06T00:24:13;59.83;;;3.30;;
1308;SDS011;647;48.840;9.314;2022-08-06T00:26:40;58.77;;;2.97;;
1308;SDS011;647;48.840;9.314;2022-08-06T00:29:07;58.73;;;2.93;;
1308;SDS011;647;48.840;9.314;2022-08-06T00:31:34;58.80;;;3.03;;
1308;SDS011;647;48.840;9.314;2022-08-06T00:34:01;58.87;;;3.27;;
1308;SDS011;647;48.840;9.314;2022-08-06T00:36:29;58.50;;;2.90;;
1308;SDS011;647;48.840;9.314;2022-08-06T00:38:59;59.07;;;2.57;;
1308;SDS011;647;48.840;9.314;2022-08-06T00:41:26;58.60;;;2.67;;
1308;SDS011;647;48.840;9.314;2022-08-06T00:43:54;59.57;;;3.20;;
1308;SDS011;647;48.840;9.314;2022-08-06T00:46:21;59.27;;;3.80;;
1308;SDS011;647;48.840;9.314;2022-08-06T00:48:48;58.70;;;2.80;;
1308;SDS011;647;48.840;9.314;2022-08-06T00:51:15;60.87;;;3.27;;
1308;SDS011;647;48.840;9.314;2022-08-06T00:53:43;59.07;;;2.87;;
1308;SDS011;647;48.840;9.314;2022-08-06T00:56:11;59.10;;;3.00;;
1308;SDS011;647;48.840;9.314;2022-08-06T00:58:38;58.77;;;3.20;;
1308;SDS011;647;48.840;9.314;2022-08-06T01:01:05;59.07;;;3.30;;
1308;SDS011;647;48.840;9.314;2022-08-06T01:03:33;58.80;;;2.67;;
1308;SDS011;647;48.840;9.314;2022-08-06T01:06:00;58.50;;;2.97;;
1308;SDS011;647;48.840;9.314;2022-08-06T01:08:27;58.90;;;2.80;;
1308;SDS011;647;48.840;9.314;2022-08-06T01:10:54;58.47;;;2.60;;
1308;SDS011;647;48.840;9.314;2022-08-06T01:13:22;58.40;;;2.87;;
1308;SDS011;647;48.840;9.314;2022-08-06T01:15:50;57.90;;;2.90;;
1308;SDS011;647;48.840;9.314;2022-08-06T01:18:20;59.20;;;2.90;;
1308;SDS011;647;48.840;9.314;2022-08-06T01:20:51;59.07;;;3.13;;
1308;SDS011;647;48.840;9.314;2022-08-06T01:23:28;59.77;;;3.00;;
1308;SDS011;647;48.840;9.314;2022-08-06T01:26:02;59.10;;;2.83;;
1308;SDS011;647;48.840;9.314;2022-08-06T01:28:40;58.73;;;2.83;;
1308;SDS011;647;48.840;9.314;2022-08-06T01:31:09;58.33;;;2.60;;
1308;SDS011;647;48.840;9.314;2022-08-06T01:33:38;58.40;;;2.80;;
1308;SDS011;647;48.840;9.314;2022-08-06T01:36:08;58.40;;;2.90;;
1308;SDS011;647;48.840;9.314;2022-08-06T01:38:37;67.03;;;3.47;;
1308;SDS011;647;48.840;9.314;2022-08-06T01:41:07;58.37;;;2.67;;
1308;SDS011;647;48.840;9.314;2022-08-06T01:43:35;58.60;;;2.67;;
1308;SDS011;647;48.840;9.314;2022-08-06T01:46:05;58.67;;;2.70;;
1308;SDS011;647;48.840;9.314;2022-08-06T01:48:33;58.27;;;3.10;;
1308;SDS011;647;48.840;9.314;2022-08-06T01:51:03;58.40;;;3.13;;
1308;SDS011;647;48.840;9.314;2022-08-06T01:53:33;58.43;;;2.73;;
1308;SDS011;647;48.840;9.314;2022-08-06T01:56:02;58.80;;;3.00;;
1308;SDS011;647;48.840;9.314;2022-08-06T01:58:30;58.80;;;2.80;;
1308;SDS011;647;48.840;9.314;2022-08-06T02:00:59;58.90;;;2.77;;
1308;SDS011;647;48.840;9.314;2022-08-06T02:03:28;59.20;;;3.10;;
1308;SDS011;647;48.840;9.314;2022-08-06T02:05:56;58.90;;;3.00;;
1308;SDS011;647;48.840;9.314;2022-08-06T02:08:25;58.73;;;3.30;;
1308;SDS011;647;48.840;9.314;2022-08-06T02:10:53;63.27;;;4.17;;
1308;SDS011;647;48.840;9.314;2022-08-06T02:13:22;58.27;;;2.50;;
1308;SDS011;647;48.840;9.314;2022-08-06T02:15:49;58.87;;;3.03;;
1308;SDS011;647;48.840;9.314;2022-08-06T02:18:17;60.00;;;2.93;;
1308;SDS011;647;48.840;9.314;2022-08-06T02:20:48;59.27;;;3.23;;
1308;SDS011;647;48.840;9.314;2022-08-06T02:23:17;58.80;;;3.20;;
1308;SDS011;647;48.840;9.314;2022-08-06T02:25:45;58.73;;;2.93;;
1308;SDS011;647;48.840;9.314;2022-08-06T02:28:14;59.07;;;3.17;;
1308;SDS011;647;48.840;9.314;2022-08-06T02:30:42;58.87;;;2.87;;
1308;SDS011;647;48.840;9.314;2022-08-06T02:33:11;59.00;;;3.17;;
1308;SDS011;647;48.840;9.314;2022-08-06T02:35:39;58.37;;;2.90;;
1308;SDS011;647;48.840;9.314;2022-08-06T02:38:11;58.93;;;3.03;;
1308;SDS011;647;48.840;9.314;2022-08-06T02:40:42;58.50;;;2.80;;
1308;SDS011;647;48.840;9.314;2022-08-06T02:43:10;60.63;;;3.27;;
1308;SDS011;647;48.840;9.314;2022-08-06T02:45:39;58.57;;;3.00;;
1308;SDS011;647;48.840;9.314;2022-08-06T02:48:10;59.00;;;3.23;;
1308;SDS011;647;48.840;9.314;2022-08-06T02:50:40;58.97;;;2.93;;
1308;SDS011;647;48.840;9.314;2022-08-06T02:53:09;58.77;;;3.00;;
1308;SDS011;647;48.840;9.314;2022-08-06T02:55:39;58.47;;;2.80;;
1308;SDS011;647;48.840;9.314;2022-08-06T02:58:10;58.87;;;3.10;;
1308;SDS011;647;48.840;9.314;2022-08-06T03:00:39;58.47;;;3.00;;
1308;SDS011;647;48.840;9.314;2022-08-06T03:03:07;58.97;;;3.50;;
1308;SDS011;647;48.840;9.314;2022-08-06T03:05:34;58.60;;;2.80;;
1308;SDS011;647;48.840;9.314;2022-08-06T03:08:03;59.70;;;3.17;;
1308;SDS011;647;48.840;9.314;2022-08-06T03:10:32;58.07;;;3.00;;
1308;SDS011;647;48.840;9.314;2022-08-06T03:13:01;59.50;;;3.40;;
1308;SDS011;647;48.840;9.314;2022-08-06T03:15:29;59.20;;;3.30;;
1308;SDS011;647;48.840;9.314;2022-08-06T03:17:57;58.67;;;3.10;;
1308;SDS011;647;48.840;9.314;2022-08-06T03:20:25;58.63;;;3.10;;
1308;SDS011;647;48.840;9.314;2022-08-06T03:22:54;59.10;;;3.43;;
1308;SDS011;647;48.840;9.314;2022-08-06T03:25:23;59.90;;;3.33;;
1308;SDS011;647;48.840;9.314;2022-08-06T03:27:51;58.93;;;3.10;;
1308;SDS011;647;48.840;9.314;2022-08-06T03:30:20;58.73;;;2.97;;
1308;SDS011;647;48.840;9.314;2022-08-06T03:32:48;58.70;;;3.00;;
1308;SDS011;647;48.840;9.314;2022-08-06T03:35:16;58.90;;;3.40;;
1308;SDS011;647;48.840;9.314;2022-08-06T03:37:44;58.57;;;3.23;;
1308;SDS011;647;48.840;9.314;2022-08-06T03:40:12;59.27;;;3.60;;
1308;SDS011;647;48.840;9.314;2022-08-06T03:42:41;60.50;;;3.40;;
1308;SDS011;647;48.840;9.314;2022-08-06T03:45:08;58.37;;;2.57;;
1308;SDS011;647;48.840;9.314;2022-08-06T03:47:38;58.37;;;3.37;;
1308;SDS011;647;48.840;9.314;2022-08-06T03:50:08;58.50;;;3.10;;
1308;SDS011;647;48.840;9.314;2022-08-06T03:52:36;59.00;;;3.03;;
1308;SDS011;647;48.840;9.314;2022-08-06T03:55:05;58.43;;;2.83;;
1308;SDS011;647;48.840;9.314;2022-08-06T03:57:34;58.97;;;3.20;;
1308;SDS011;647;48.840;9.314;2022-08-06T04:00:03;58.83;;;3.10;;
1308;SDS011;647;48.840;9.314;2022-08-06T04:02:31;58.87;;;3.07;;
1308;SDS011;647;48.840;9.314;2022-08-06T04:05:00;58.97;;;2.90;;
1308;SDS011;647;48.840;9.314;2022-08-06T04:07:28;60.10;;;3.20;;
1308;SDS011;647;48.840;9.314;2022-08-06T04:09:56;58.27;;;2.90;;
1308;SDS011;647;48.840;9.314;2022-08-06T04:12:23;58.87;;;3.20;;
1308;SDS011;647;48.840;9.314;2022-08-06T04:14:51;58.70;;;2.93;;
1308;SDS011;647;48.840;9.314;2022-08-06T04:17:18;58.47;;;3.20;;
1308;SDS011;647;48.840;9.314;2022-08-06T04:19:46;58.80;;;2.90;;
1308;SDS011;647;48.840;9.314;2022-08-06T04:22:16;58.77;;;3.13;;
1308;SDS011;647;48.840;9.314;2022-08-06T04:24:43;59.77;;;3.53;;
1308;SDS011;647;48.840;9.314;2022-08-06T04:27:10;59.47;;;2.97;;
1308;SDS011;647;48.840;9.314;2022-08-06T04:29:39;59.87;;;3.40;;
1308;SDS011;647;48.840;9.314;2022-08-06T04:32:07;59.27;;;2.97;;
1308;SDS011;647;48.840;9.314;2022-08-06T04:34:35;59.00;;;3.10;;
1308;SDS011;647;48.840;9.314;2022-08-06T04:37:03;59.97;;;3.30;;
1308;SDS011;647;48.840;9.314;2022-08-06T04:39:32;58.97;;;3.53;;
1308;SDS011;647;48.840;9.314;2022-08-06T04:42:00;58.97;;;3.30;;
1308;SDS011;647;48.840;9.314;2022-08-06T04:44:28;58.77;;;3.00;;
1308;SDS011;647;48.840;9.314;2022-08-06T04:46:55;58.50;;;2.90;;
1308;SDS011;647;48.840;9.314;2022-08-06T04:49:23;59.53;;;3.20;;
1308;SDS011;647;48.840;9.314;2022-08-06T04:51:50;62.23;;;3.30;;
1308;SDS011;647;48.840;9.314;2022-08-06T04:54:17;58.70;;;2.70;;
1308;SDS011;647;48.840;9.314;2022-08-06T04:56:46;58.27;;;2.70;;
1308;SDS011;647;48.840;9.314;2022-08-06T04:59:13;58.60;;;2.83;;
1308;SDS011;647;48.840;9.314;2022-08-06T05:01:40;58.97;;;3.03;;
1308;SDS011;647;48.840;9.314;2022-08-06T05:04:07;59.93;;;3.80;;
1308;SDS011;647;48.840;9.314;2022-08-06T05:06:38;59.30;;;2.93;;
1308;SDS011;647;48.840;9.314;2022-08-06T05:09:08;58.80;;;3.00;;
1308;SDS011;647;48.840;9.314;2022-08-06T05:11:37;59.17;;;3.13;;
1308;SDS011;647;48.840;9.314;2022-08-06T05:14:08;59.10;;;3.30;;
1308;SDS011;647;48.840;9.314;2022-08-06T05:16:36;58.93;;;3.20;;
1308;SDS011;647;48.840;9.314;2022-08-06T05:19:05;59.10;;;3.43;;
1308;SDS011;647;48.840;9.314;2022-08-06T05:21:37;58.60;;;3.20;;
1308;SDS011;647;48.840;9.314;2022-08-06T05:24:04;58.40;;;2.83;;
1308;SDS011;647;48.840;9.314;2022-08-06T05:26:32;65.00;;;3.30;;
1308;SDS011;647;48.840;9.314;2022-08-06T05:29:00;58.50;;;3.10;;
1308;SDS011;647;48.840;9.314;2022-08-06T05:31:29;59.10;;;3.07;;
1308;SDS011;647;48.840;9.314;2022-08-06T05:33:56;58.63;;;3.17;;
1308;SDS011;647;48.840;9.314;2022-08-06T05:36:23;58.70;;;3.20;;
1308;SDS011;647;48.840;9.314;2022-08-06T05:38:50;59.50;;;2.97;;
1308;SDS011;647;48.840;9.314;2022-08-06T05:41:18;58.57;;;2.97;;
1308;SDS011;647;48.840;9.314;2022-08-06T05:43:45;58.67;;;3.27;;
1308;SDS011;647;48.840;9.314;2022-08-06T05:46:13;58.67;;;3.10;;
1308;SDS011;647;48.840;9.314;2022-08-06T05:48:42;60.30;;;3.40;;
1308;SDS011;647;48.840;9.314;2022-08-06T05:51:12;58.80;;;3.00;;
1308;SDS011;647;48.840;9.314;2022-08-06T05:53:41;59.70;;;3.10;;
1308;SDS011;647;48.840;9.314;2022-08-06T05:56:10;58.27;;;2.90;;
1308;SDS011;647;48.840;9.314;2022-08-06T05:58:39;58.90;;;3.00;;
1308;SDS011;647;48.840;9.314;2022-08-06T06:01:06;60.80;;;2.77;;
1308;SDS011;647;48.840;9.314;2022-08-06T06:03:34;60.07;;;3.10;;
1308;SDS011;647;48.840;9.314;2022-08-06T06:06:05;58.70;;;3.17;;
1308;SDS011;647;48.840;9.314;2022-08-06T06:08:32;59.40;;;3.20;;
1308;SDS011;647;48.840;9.314;2022-08-06T06:10:59;58.60;;;3.13;;
1308;SDS011;647;48.840;9.314;2022-08-06T06:13:26;58.40;;;3.20;;
1308;SDS011;647;48.840;9.314;2022-08-06T06:15:56;59.03;;;3.03;;
1308;SDS011;647;48.840;9.314;2022-08-06T06:18:28;58.57;;;2.80;;
1308;SDS011;647;48.840;9.314;2022-08-06T06:20:57;58.57;;;3.10;;
1308;SDS011;647;48.840;9.314;2022-08-06T06:23:28;58.77;;;3.40;;
1308;SDS011;647;48.840;9.314;2022-08-06T06:26:00;58.50;;;3.10;;
1308;SDS011;647;48.840;9.314;2022-08-06T06:28:28;58.40;;;3.00;;
1308;SDS011;647;48.840;9.314;2022-08-06T06:30:58;59.57;;;3.40;;
1308;SDS011;647;48.840;9.314;2022-08-06T06:33:28;58.17;;;2.80;;
1308;SDS011;647;48.840;9.314;2022-08-06T06:35:57;58.70;;;2.90;;
1308;SDS011;647;48.840;9.314;2022-08-06T06:38:30;59.03;;;3.50;;
1308;SDS011;647;48.840;9.314;2022-08-06T06:41:00;58.50;;;3.13;;
1308;SDS011;647;48.840;9.314;2022-08-06T06:43:32;58.30;;;2.90;;
1308;SDS011;647;48.840;9.314;2022-08-06T06:46:01;61.07;;;3.70;;
1308;SDS011;647;48.840;9.314;2022-08-06T06:48:31;58.30;;;2.57;;
1308;SDS011;647;48.840;9.314;2022-08-06T06:51:01;59.50;;;3.03;;
1308;SDS011;647;48.840;9.314;2022-08-06T06:53:30;60.47;;;3.07;;
1308;SDS011;647;48.840;9.314;2022-08-06T06:55:59;58.47;;;2.87;;
1308;SDS011;647;48.840;9.314;2022-08-06T06:58:27;60.60;;;3.30;;
1308;SDS011;647;48.840;9.314;2022-08-06T07:00:56;58.80;;;3.30;;
1308;SDS011;647;48.840;9.314;2022-08-06T07:03:23;59.20;;;3.10;;
1308;SDS011;647;48.840;9.314;2022-08-06T07:05:52;59.40;;;3.07;;
1308;SDS011;647;48.840;9.314;2022-08-06T07:08:23;58.60;;;3.10;;
1308;SDS011;647;48.840;9.314;2022-08-06T07:10:52;58.77;;;3.13;;
1308;SDS011;647;48.840;9.314;2022-08-06T07:13:20;58.77;;;3.03;;
1308;SDS011;647;48.840;9.314;2022-08-06T07:15:47;58.77;;;3.27;;
1308;SDS011;647;48.840;9.314;2022-08-06T07:18:15;58.80;;;3.50;;
1308;SDS011;647;48.840;9.314;2022-08-06T07:20:42;58.13;;;3.30;;
1308;SDS011;647;48.840;9.314;2022-08-06T07:23:10;58.70;;;3.20;;
1308;SDS011;647;48.840;9.314;2022-08-06T07:25:39;58.67;;;2.93;;
1308;SDS011;647;48.840;9.314;2022-08-06T07:28:10;58.40;;;2.90;;
1308;SDS011;647;48.840;9.314;2022-08-06T07:30:38;58.77;;;3.93;;
1308;SDS011;647;48.840;9.314;2022-08-06T07:33:06;59.20;;;3.00;;
1308;SDS011;647;48.840;9.314;2022-08-06T07:35:35;58.40;;;3.20;;
1308;SDS011;647;48.840;9.314;2022-08-06T07:38:02;59.47;;;3.40;;
1308;SDS011;647;48.840;9.314;2022-08-06T07:40:31;59.20;;;3.80;;
1308;SDS011;647;48.840;9.314;2022-08-06T07:43:00;58.63;;;3.37;;
1308;SDS011;647;48.840;9.314;2022-08-06T07:45:31;58.53;;;3.63;;
1308;SDS011;647;48.840;9.314;2022-08-06T07:48:00;59.10;;;3.50;;
1308;SDS011;647;48.840;9.314;2022-08-06T07:50:27;58.70;;;3.00;;
1308;SDS011;647;48.840;9.314;2022-08-06T07:52:55;59.80;;;3.40;;
1308;SDS011;647;48.840;9.314;2022-08-06T07:55:22;58.60;;;3.07;;
1308;SDS011;647;48.840;9.314;2022-08-06T07:57:51;58.83;;;3.13;;
1308;SDS011;647;48.840;9.314;2022-08-06T08:00:19;58.17;;;3.00;;
1308;SDS011;647;48.840;9.314;2022-08-06T08:02:48;58.50;;;3.30;;
1308;SDS011;647;48.840;9.314;2022-08-06T08:05:34;57.90;;;3.17;;
1308;SDS011;647;48.840;9.314;2022-08-06T08:08:19;59.83;;;3.27;;
1308;SDS011;647;48.840;9.314;2022-08-06T08:10:46;59.43;;;3.57;;
1308;SDS011;647;48.840;9.314;2022-08-06T08:13:13;58.37;;;3.10;;
1308;SDS011;647;48.840;9.314;2022-08-06T08:15:43;58.70;;;3.40;;
1308;SDS011;647;48.840;9.314;2022-08-06T08:18:12;59.47;;;3.10;;
1308;SDS011;647;48.840;9.314;2022-08-06T08:20:41;59.20;;;3.63;;
1308;SDS011;647;48.840;9.314;2022-08-06T08:23:09;58.40;;;2.80;;
1308;SDS011;647;48.840;9.314;2022-08-06T08:25:38;58.70;;;3.30;;
1308;SDS011;647;48.840;9.314;2022-08-06T08:28:05;58.57;;;3.07;;
1308;SDS011;647;48.840;9.314;2022-08-06T08:30:32;59.80;;;3.47;;
1308;SDS011;647;48.840;9.314;2022-08-06T08:33:00;58.60;;;3.00;;
1308;SDS011;647;48.840;9.314;2022-08-06T08:35:28;58.40;;;3.07;;
1308;SDS011;647;48.840;9.314;2022-08-06T08:37:55;58.17;;;2.77;;
1308;SDS011;647;48.840;9.314;2022-08-06T08:40:22;58.00;;;3.13;;
1308;SDS011;647;48.840;9.314;2022-08-06T08:42:51;58.37;;;2.90;;
1308;SDS011;647;48.840;9.314;2022-08-06T08:45:20;58.83;;;3.13;;
1308;SDS011;647;48.840;9.314;2022-08-06T08:47:49;60.33;;;3.17;;
1308;SDS011;647;48.840;9.314;2022-08-06T08:50:16;60.57;;;3.20;;
1308;SDS011;647;48.840;9.314;2022-08-06T08:52:46;58.37;;;3.30;;
1308;SDS011;647;48.840;9.314;2022-08-06T08:55:14;58.47;;;3.20;;
1308;SDS011;647;48.840;9.314;2022-08-06T08:57:42;58.20;;;3.03;;
1308;SDS011;647;48.840;9.314;2022-08-06T09:00:10;60.30;;;3.60;;
1308;SDS011;647;48.840;9.314;2022-08-06T09:02:38;58.97;;;3.17;;
1308;SDS011;647;48.840;9.314;2022-08-06T09:05:06;58.10;;;3.00;;
1308;SDS011;647;48.840;9.314;2022-08-06T09:07:33;58.30;;;2.90;;
1308;SDS011;647;48.840;9.314;2022-08-06T09:10:02;58.67;;;3.00;;
1308;SDS011;647;48.840;9.314;2022-08-06T09:12:30;59.40;;;3.30;;
1308;SDS011;647;48.840;9.314;2022-08-06T09:14:57;59.43;;;3.20;;
1308;SDS011;647;48.840;9.314;2022-08-06T09:17:24;58.80;;;3.10;;
1308;SDS011;647;48.840;9.314;2022-08-06T09:19:52;58.90;;;3.00;;
1308;SDS011;647;48.840;9.314;2022-08-06T09:22:19;58.70;;;2.90;;
1308;SDS011;647;48.840;9.314;2022-08-06T09:24:47;58.70;;;3.03;;
1308;SDS011;647;48.840;9.314;2022-08-06T09:27:16;58.77;;;3.13;;
1308;SDS011;647;48.840;9.314;2022-08-06T09:29:47;59.00;;;2.90;;
1308;SDS011;647;48.840;9.314;2022-08-06T09:32:17;58.13;;;2.77;;
1308;SDS011;647;48.840;9.314;2022-08-06T09:35:02;58.97;;;2.57;;
1308;SDS011;647;48.840;9.314;2022-08-06T09:37:29;59.43;;;4.20;;
1308;SDS011;647;48.840;9.314;2022-08-06T09:39:56;58.47;;;3.30;;
1308;SDS011;647;48.840;9.314;2022-08-06T09:42:37;58.20;;;2.70;;
1308;SDS011;647;48.840;9.314;2022-08-06T09:45:05;57.90;;;2.70;;
1308;SDS011;647;48.840;9.314;2022-08-06T09:47:32;58.10;;;2.60;;
1308;SDS011;647;48.840;9.314;2022-08-06T09:49:59;58.87;;;3.27;;
1308;SDS011;647;48.840;9.314;2022-08-06T09:52:27;58.30;;;2.60;;
1308;SDS011;647;48.840;9.314;2022-08-06T09:54:54;59.93;;;3.40;;
1308;SDS011;647;48.840;9.314;2022-08-06T09:57:22;59.87;;;2.87;;
1308;SDS011;647;48.840;9.314;2022-08-06T09:59:50;58.33;;;3.00;;
1308;SDS011;647;48.840;9.314;2022-08-06T10:02:19;59.67;;;2.90;;
1308;SDS011;647;48.840;9.314;2022-08-06T10:04:47;58.80;;;2.80;;
1308;SDS011;647;48.840;9.314;2022-08-06T10:07:14;58.33;;;2.70;;
1308;SDS011;647;48.840;9.314;2022-08-06T10:12:27;58.70;;;2.97;;
1308;SDS011;647;48.840;9.314;2022-08-06T10:14:55;58.47;;;3.07;;
1308;SDS011;647;48.840;9.314;2022-08-06T10:17:23;58.33;;;2.83;;
1308;SDS011;647;48.840;9.314;2022-08-06T10:20:04;58.47;;;2.70;;
1308;SDS011;647;48.840;9.314;2022-08-06T10:22:31;58.30;;;2.67;;
1308;SDS011;647;48.840;9.314;2022-08-06T10:25:00;58.13;;;2.83;;
1308;SDS011;647;48.840;9.314;2022-08-06T10:27:28;58.17;;;2.73;;
1308;SDS011;647;48.840;9.314;2022-08-06T10:29:58;58.37;;;2.60;;
1308;SDS011;647;48.840;9.314;2022-08-06T10:32:29;58.20;;;2.60;;
1308;SDS011;647;48.840;9.314;2022-08-06T10:34:57;58.67;;;2.67;;
1308;SDS011;647;48.840;9.314;2022-08-06T10:37:24;60.27;;;2.80;;
1308;SDS011;647;48.840;9.314;2022-08-06T10:39:55;58.10;;;2.80;;
1308;SDS011;647;48.840;9.314;2022-08-06T10:42:22;57.87;;;2.13;;
1308;SDS011;647;48.840;9.314;2022-08-06T10:44:50;58.50;;;2.47;;
1308;SDS011;647;48.840;9.314;2022-08-06T10:47:18;58.40;;;2.87;;
1308;SDS011;647;48.840;9.314;2022-08-06T10:49:46;57.70;;;2.30;;
1308;SDS011;647;48.840;9.314;2022-08-06T10:52:13;58.00;;;2.80;;
1308;SDS011;647;48.840;9.314;2022-08-06T10:54:40;57.37;;;2.30;;
1308;SDS011;647;48.840;9.314;2022-08-06T10:57:07;57.17;;;2.30;;
1308;SDS011;647;48.840;9.314;2022-08-06T10:59:37;58.47;;;2.70;;
1308;SDS011;647;48.840;9.314;2022-08-06T11:02:06;57.90;;;2.37;;
1308;SDS011;647;48.840;9.314;2022-08-06T11:04:41;57.97;;;2.30;;
1308;SDS011;647;48.840;9.314;2022-08-06T11:07:24;57.70;;;2.40;;
1308;SDS011;647;48.840;9.314;2022-08-06T11:10:00;57.67;;;2.27;;
1308;SDS011;647;48.840;9.314;2022-08-06T11:12:44;57.90;;;2.30;;
1308;SDS011;647;48.840;9.314;2022-08-06T11:15:13;58.40;;;2.67;;
1308;SDS011;647;48.840;9.314;2022-08-06T11:17:41;58.17;;;2.40;;
1308;SDS011;647;48.840;9.314;2022-08-06T11:20:10;58.00;;;2.80;;
1308;SDS011;647;48.840;9.314;2022-08-06T11:22:57;58.17;;;2.50;;
1308;SDS011;647;48.840;9.314;2022-08-06T11:25:36;57.77;;;2.60;;
1308;SDS011;647;48.840;9.314;2022-08-06T11:28:03;57.80;;;2.50;;
1308;SDS011;647;48.840;9.314;2022-08-06T11:30:38;58.27;;;2.73;;
1308;SDS011;647;48.840;9.314;2022-08-06T11:33:06;57.87;;;2.30;;
1308;SDS011;647;48.840;9.314;2022-08-06T11:35:41;58.30;;;2.50;;
1308;SDS011;647;48.840;9.314;2022-08-06T11:38:11;57.97;;;2.50;;
1308;SDS011;647;48.840;9.314;2022-08-06T11:40:57;57.77;;;2.57;;
1308;SDS011;647;48.840;9.314;2022-08-06T11:46:21;57.90;;;2.57;;
1308;SDS011;647;48.840;9.314;2022-08-06T11:51:51;57.13;;;2.20;;
1308;SDS011;647;48.840;9.314;2022-08-06T11:54:20;57.87;;;2.63;;
1308;SDS011;647;48.840;9.314;2022-08-06T11:59:33;57.30;;;2.30;;
1308;SDS011;647;48.840;9.314;2022-08-06T12:02:01;57.60;;;2.30;;
1308;SDS011;647;48.840;9.314;2022-08-06T12:04:41;57.60;;;2.60;;
1308;SDS011;647;48.840;9.314;2022-08-06T12:07:18;57.60;;;2.63;;
1308;SDS011;647;48.840;9.314;2022-08-06T12:09:50;57.17;;;2.40;;
1308;SDS011;647;48.840;9.314;2022-08-06T12:12:31;57.47;;;2.50;;
1308;SDS011;647;48.840;9.314;2022-08-06T12:14:58;57.00;;;2.23;;
1308;SDS011;647;48.840;9.314;2022-08-06T12:17:26;57.07;;;2.10;;
1308;SDS011;647;48.840;9.314;2022-08-06T12:19:54;57.40;;;2.10;;
1308;SDS011;647;48.840;9.314;2022-08-06T12:22:23;57.37;;;2.17;;
1308;SDS011;647;48.840;9.314;2022-08-06T12:24:51;61.50;;;2.37;;
1308;SDS011;647;48.840;9.314;2022-08-06T12:27:20;57.27;;;2.20;;
1308;SDS011;647;48.840;9.314;2022-08-06T12:29:47;57.40;;;2.50;;
1308;SDS011;647;48.840;9.314;2022-08-06T12:32:21;56.87;;;2.40;;
1308;SDS011;647;48.840;9.314;2022-08-06T12:34:49;58.30;;;2.60;;
1308;SDS011;647;48.840;9.314;2022-08-06T12:37:16;57.40;;;2.47;;
1308;SDS011;647;48.840;9.314;2022-08-06T12:39:45;56.80;;;1.90;;
1308;SDS011;647;48.840;9.314;2022-08-06T12:42:30;56.90;;;2.00;;
1308;SDS011;647;48.840;9.314;2022-08-06T12:44:58;56.80;;;2.17;;
1308;SDS011;647;48.840;9.314;2022-08-06T12:47:25;56.80;;;2.00;;
1308;SDS011;647;48.840;9.314;2022-08-06T12:49:52;56.97;;;2.33;;
1308;SDS011;647;48.840;9.314;2022-08-06T12:52:20;56.77;;;2.40;;
1308;SDS011;647;48.840;9.314;2022-08-06T12:54:49;56.87;;;2.20;;
1308;SDS011;647;48.840;9.314;2022-08-06T12:57:19;57.00;;;2.20;;
1308;SDS011;647;48.840;9.314;2022-08-06T12:59:47;57.70;;;2.70;;
1308;SDS011;647;48.840;9.314;2022-08-06T13:02:14;58.90;;;2.10;;
1308;SDS011;647;48.840;9.314;2022-08-06T13:04:42;56.57;;;1.77;;
1308;SDS011;647;48.840;9.314;2022-08-06T13:07:09;56.90;;;2.20;;
1308;SDS011;647;48.840;9.314;2022-08-06T13:09:37;56.87;;;1.97;;
1308;SDS011;647;48.840;9.314;2022-08-06T13:12:15;57.07;;;2.03;;
1308;SDS011;647;48.840;9.314;2022-08-06T13:14:49;56.70;;;2.10;;
1308;SDS011;647;48.840;9.314;2022-08-06T13:17:17;57.07;;;2.40;;
1308;SDS011;647;48.840;9.314;2022-08-06T13:19:52;56.90;;;2.20;;
1308;SDS011;647;48.840;9.314;2022-08-06T13:22:19;56.87;;;1.90;;
1308;SDS011;647;48.840;9.314;2022-08-06T13:24:47;56.77;;;2.10;;
1308;SDS011;647;48.840;9.314;2022-08-06T13:27:16;56.70;;;1.83;;
1308;SDS011;647;48.840;9.314;2022-08-06T13:29:58;57.50;;;3.03;;
1308;SDS011;647;48.840;9.314;2022-08-06T13:32:26;56.90;;;2.20;;
1308;SDS011;647;48.840;9.314;2022-08-06T13:34:54;56.63;;;1.87;;
1308;SDS011;647;48.840;9.314;2022-08-06T13:37:40;57.10;;;2.20;;
1308;SDS011;647;48.840;9.314;2022-08-06T13:40:08;56.57;;;1.90;;
1308;SDS011;647;48.840;9.314;2022-08-06T13:42:48;56.97;;;2.67;;
1308;SDS011;647;48.840;9.314;2022-08-06T13:45:19;56.70;;;2.03;;
1308;SDS011;647;48.840;9.314;2022-08-06T13:47:46;56.73;;;2.17;;
1308;SDS011;647;48.840;9.314;2022-08-06T13:50:15;57.77;;;2.20;;
1308;SDS011;647;48.840;9.314;2022-08-06T13:52:43;57.87;;;2.00;;
1308;SDS011;647;48.840;9.314;2022-08-06T13:55:10;61.30;;;2.20;;
1308;SDS011;647;48.840;9.314;2022-08-06T13:57:37;57.00;;;2.00;;
1308;SDS011;647;48.840;9.314;2022-08-06T14:00:06;56.87;;;2.10;;
1308;SDS011;647;48.840;9.314;2022-08-06T14:02:33;56.40;;;1.70;;
1308;SDS011;647;48.840;9.314;2022-08-06T14:05:01;56.97;;;2.10;;
1308;SDS011;647;48.840;9.314;2022-08-06T14:07:28;56.67;;;2.20;;
1308;SDS011;647;48.840;9.314;2022-08-06T14:09:55;56.90;;;1.90;;
1308;SDS011;647;48.840;9.314;2022-08-06T14:12:22;56.43;;;1.70;;
1308;SDS011;647;48.840;9.314;2022-08-06T14:14:50;56.83;;;2.00;;
1308;SDS011;647;48.840;9.314;2022-08-06T14:17:18;57.27;;;2.20;;
1308;SDS011;647;48.840;9.314;2022-08-06T14:19:45;56.67;;;1.90;;
1308;SDS011;647;48.840;9.314;2022-08-06T14:22:12;56.77;;;1.97;;
1308;SDS011;647;48.840;9.314;2022-08-06T14:24:40;56.73;;;2.10;;
1308;SDS011;647;48.840;9.314;2022-08-06T14:27:07;56.60;;;1.90;;
1308;SDS011;647;48.840;9.314;2022-08-06T14:29:34;56.90;;;1.93;;
1308;SDS011;647;48.840;9.314;2022-08-06T14:32:02;63.00;;;2.40;;
1308;SDS011;647;48.840;9.314;2022-08-06T14:34:30;56.87;;;2.20;;
1308;SDS011;647;48.840;9.314;2022-08-06T14:36:58;57.10;;;2.20;;
1308;SDS011;647;48.840;9.314;2022-08-06T14:39:25;56.90;;;2.40;;
1308;SDS011;647;48.840;9.314;2022-08-06T14:41:52;56.77;;;2.10;;
1308;SDS011;647;48.840;9.314;2022-08-06T14:44:36;56.53;;;2.00;;
1308;SDS011;647;48.840;9.314;2022-08-06T14:47:22;57.40;;;2.20;;
1308;SDS011;647;48.840;9.314;2022-08-06T14:49:50;56.97;;;2.07;;
1308;SDS011;647;48.840;9.314;2022-08-06T14:52:18;57.47;;;2.10;;
1308;SDS011;647;48.840;9.314;2022-08-06T14:54:45;57.40;;;2.30;;
1308;SDS011;647;48.840;9.314;2022-08-06T14:57:12;57.37;;;2.17;;
1308;SDS011;647;48.840;9.314;2022-08-06T14:59:39;58.90;;;2.10;;
1308;SDS011;647;48.840;9.314;2022-08-06T15:02:06;57.20;;;1.93;;
1308;SDS011;647;48.840;9.314;2022-08-06T15:04:33;57.50;;;2.40;;
1308;SDS011;647;48.840;9.314;2022-08-06T15:07:02;57.50;;;2.20;;
1308;SDS011;647;48.840;9.314;2022-08-06T15:09:29;57.27;;;2.20;;
1308;SDS011;647;48.840;9.314;2022-08-06T15:11:57;56.87;;;1.90;;
1308;SDS011;647;48.840;9.314;2022-08-06T15:14:24;57.20;;;2.10;;
1308;SDS011;647;48.840;9.314;2022-08-06T15:16:52;57.07;;;2.00;;
1308;SDS011;647;48.840;9.314;2022-08-06T15:19:19;57.00;;;2.10;;
1308;SDS011;647;48.840;9.314;2022-08-06T15:21:46;57.00;;;2.27;;
1308;SDS011;647;48.840;9.314;2022-08-06T15:24:15;56.77;;;1.97;;
1308;SDS011;647;48.840;9.314;2022-08-06T15:26:42;57.00;;;2.00;;
1308;SDS011;647;48.840;9.314;2022-08-06T15:29:09;56.87;;;1.80;;
1308;SDS011;647;48.840;9.314;2022-08-06T15:31:36;57.10;;;2.00;;
1308;SDS011;647;48.840;9.314;2022-08-06T15:34:04;57.10;;;2.10;;
1308;SDS011;647;48.840;9.314;2022-08-06T15:36:31;57.17;;;2.20;;
1308;SDS011;647;48.840;9.314;2022-08-06T15:38:58;58.53;;;2.40;;